sensor_id;sensor_type;location;lat;lon;timestamp;P1;durP1;ratioP1;P2;durP2;ratioP2
24143;SDS011;12307;50.828;6.080;2023-01-28T00:01:41;1.45;;;1.35;;
24143;SDS011;12307;50.828;6.080;2023-01-28T00:04:06;1.30;;;1.20;;
24143;SDS011;12307;50.828;6.080;2023-01-28T00:06:32;1.60;;;1.33;;
24143;SDS011;12307;50.828;6.080;2023-01-28T00:08:58;1.63;;;1.52;;
24143;SDS011;12307;50.828;6.080;2023-01-28T00:11:23;1.50;;;1.40;;
24143;SDS011;12307;50.828;6.080;2023-01-28T00:13:50;1.40;;;1.30;;
24143;SDS011;12307;50.828;6.080;2023-01-28T00:16:16;1.40;;;1.30;;
24143;SDS011;12307;50.828;6.080;2023-01-28T00:18:43;1.50;;;1.40;;
24143;SDS011;12307;50.828;6.080;2023-01-28T00:21:10;1.50;;;1.40;;
24143;SDS011;12307;50.828;6.080;2023-01-28T00:23:37;1.55;;;1.42;;
24143;SDS011;12307;50.828;6.080;2023-01-28T00:26:05;1.42;;;1.33;;
24143;SDS011;12307;50.828;6.080;2023-01-28T00:28:33;1.70;;;1.60;;
24143;SDS011;12307;50.828;6.080;2023-01-28T00:31:04;1.50;;;1.40;;
24143;SDS011;12307;50.828;6.080;2023-01-28T00:33:30;1.48;;;1.30;;
24143;SDS011;12307;50.828;6.080;2023-01-28T00:35:58;1.40;;;1.23;;
24143;SDS011;12307;50.828;6.080;2023-01-28T00:38:25;1.30;;;1.20;;
24143;SDS011;12307;50.828;6.080;2023-01-28T00:40:51;1.30;;;1.20;;
24143;SDS011;12307;50.828;6.080;2023-01-28T00:43:16;2.65;;;1.70;;
24143;SDS011;12307;50.828;6.080;2023-01-28T00:45:42;1.50;;;1.40;;
24143;SDS011;12307;50.828;6.080;2023-01-28T00:48:08;1.75;;;1.50;;
24143;SDS011;12307;50.828;6.080;2023-01-28T00:50:33;1.48;;;1.38;;
24143;SDS011;12307;50.828;6.080;2023-01-28T00:53:00;1.33;;;1.23;;
24143;SDS011;12307;50.828;6.080;2023-01-28T00:55:26;1.63;;;1.40;;
24143;SDS011;12307;50.828;6.080;2023-01-28T00:57:52;1.50;;;1.40;;
24143;SDS011;12307;50.828;6.080;2023-01-28T01:00:18;1.40;;;1.30;;
24143;SDS011;12307;50.828;6.080;2023-01-28T01:02:51;1.52;;;1.42;;
24143;SDS011;12307;50.828;6.080;2023-01-28T01:05:16;1.40;;;1.30;;
24143;SDS011;12307;50.828;6.080;2023-01-28T01:07:42;1.40;;;1.30;;
24143;SDS011;12307;50.828;6.080;2023-01-28T01:10:10;1.95;;;1.60;;
24143;SDS011;12307;50.828;6.080;2023-01-28T01:12:36;1.52;;;1.42;;
24143;SDS011;12307;50.828;6.080;2023-01-28T01:15:03;1.95;;;1.33;;
24143;SDS011;12307;50.828;6.080;2023-01-28T01:17:33;1.70;;;1.40;;
24143;SDS011;12307;50.828;6.080;2023-01-28T01:19:58;1.10;;;1.05;;
24143;SDS011;12307;50.828;6.080;2023-01-28T01:22:24;1.50;;;1.40;;
24143;SDS011;12307;50.828;6.080;2023-01-28T01:24:50;1.58;;;1.45;;
24143;SDS011;12307;50.828;6.080;2023-01-28T01:27:17;1.42;;;1.33;;
24143;SDS011;12307;50.828;6.080;2023-01-28T01:29:42;1.60;;;1.50;;
24143;SDS011;12307;50.828;6.080;2023-01-28T01:32:08;1.60;;;1.50;;
24143;SDS011;12307;50.828;6.080;2023-01-28T01:34:34;1.42;;;1.33;;
24143;SDS011;12307;50.828;6.080;2023-01-28T01:36:59;1.50;;;1.40;;
24143;SDS011;12307;50.828;6.080;2023-01-28T01:39:25;1.45;;;1.35;;
24143;SDS011;12307;50.828;6.080;2023-01-28T01:41:51;1.40;;;1.30;;
24143;SDS011;12307;50.828;6.080;2023-01-28T01:47:16;1.10;;;1.00;;
24143;SDS011;12307;50.828;6.080;2023-01-28T01:49:42;1.60;;;1.50;;
24143;SDS011;12307;50.828;6.080;2023-01-28T01:52:09;1.50;;;1.40;;
24143;SDS011;12307;50.828;6.080;2023-01-28T01:54:40;1.58;;;1.48;;
24143;SDS011;12307;50.828;6.080;2023-01-28T01:57:09;1.40;;;1.30;;
24143;SDS011;12307;50.828;6.080;2023-01-28T01:59:40;1.45;;;1.33;;
24143;SDS011;12307;50.828;6.080;2023-01-28T02:02:09;1.50;;;1.40;;
24143;SDS011;12307;50.828;6.080;2023-01-28T02:04:37;1.40;;;1.30;;
24143;SDS011;12307;50.828;6.080;2023-01-28T02:07:04;1.77;;;1.33;;
24143;SDS011;12307;50.828;6.080;2023-01-28T02:09:33;1.40;;;1.30;;
24143;SDS011;12307;50.828;6.080;2023-01-28T02:12:03;1.60;;;1.50;;
24143;SDS011;12307;50.828;6.080;2023-01-28T02:14:33;1.63;;;1.50;;
24143;SDS011;12307;50.828;6.080;2023-01-28T02:17:02;1.50;;;1.30;;
24143;SDS011;12307;50.828;6.080;2023-01-28T02:19:31;1.55;;;1.42;;
24143;SDS011;12307;50.828;6.080;2023-01-28T02:22:05;1.77;;;1.67;;
24143;SDS011;12307;50.828;6.080;2023-01-28T02:24:53;1.63;;;1.45;;
24143;SDS011;12307;50.828;6.080;2023-01-28T02:27:30;1.55;;;1.45;;
24143;SDS011;12307;50.828;6.080;2023-01-28T02:30:04;1.52;;;1.33;;
24143;SDS011;12307;50.828;6.080;2023-01-28T02:32:35;1.55;;;1.45;;
24143;SDS011;12307;50.828;6.080;2023-01-28T02:35:08;1.40;;;1.30;;
24143;SDS011;12307;50.828;6.080;2023-01-28T02:37:39;1.73;;;1.15;;
24143;SDS011;12307;50.828;6.080;2023-01-28T02:40:11;1.45;;;1.35;;
24143;SDS011;12307;50.828;6.080;2023-01-28T02:42:41;1.60;;;1.50;;
24143;SDS011;12307;50.828;6.080;2023-01-28T02:45:13;2.28;;;1.70;;
24143;SDS011;12307;50.828;6.080;2023-01-28T02:47:42;1.50;;;1.40;;
24143;SDS011;12307;50.828;6.080;2023-01-28T02:50:24;1.63;;;1.30;;
24143;SDS011;12307;50.828;6.080;2023-01-28T02:52:59;1.60;;;1.40;;
24143;SDS011;12307;50.828;6.080;2023-01-28T02:55:53;1.42;;;1.33;;
24143;SDS011;12307;50.828;6.080;2023-01-28T02:58:29;1.60;;;1.50;;
24143;SDS011;12307;50.828;6.080;2023-01-28T03:01:04;1.52;;;1.40;;
24143;SDS011;12307;50.828;6.080;2023-01-28T03:03:36;1.67;;;1.58;;
24143;SDS011;12307;50.828;6.080;2023-01-28T03:06:08;1.52;;;1.42;;
24143;SDS011;12307;50.828;6.080;2023-01-28T03:08:40;1.83;;;1.50;;
24143;SDS011;12307;50.828;6.080;2023-01-28T03:11:28;1.48;;;1.38;;
24143;SDS011;12307;50.828;6.080;2023-01-28T03:14:14;1.92;;;1.50;;
24143;SDS011;12307;50.828;6.080;2023-01-28T03:17:01;1.85;;;1.60;;
24143;SDS011;12307;50.828;6.080;2023-01-28T03:19:48;1.50;;;1.40;;
24143;SDS011;12307;50.828;6.080;2023-01-28T03:22:32;1.63;;;1.52;;
24143;SDS011;12307;50.828;6.080;2023-01-28T03:25:20;1.70;;;1.58;;
24143;SDS011;12307;50.828;6.080;2023-01-28T03:28:07;1.63;;;1.30;;
24143;SDS011;12307;50.828;6.080;2023-01-28T03:30:55;1.63;;;1.52;;
24143;SDS011;12307;50.828;6.080;2023-01-28T03:33:46;1.60;;;1.50;;
24143;SDS011;12307;50.828;6.080;2023-01-28T03:36:31;1.90;;;1.52;;
24143;SDS011;12307;50.828;6.080;2023-01-28T03:39:15;1.90;;;1.48;;
24143;SDS011;12307;50.828;6.080;2023-01-28T03:41:42;1.65;;;1.50;;
24143;SDS011;12307;50.828;6.080;2023-01-28T03:44:19;1.60;;;1.50;;
24143;SDS011;12307;50.828;6.080;2023-01-28T03:47:03;2.22;;;1.58;;
24143;SDS011;12307;50.828;6.080;2023-01-28T03:49:32;1.55;;;1.33;;
24143;SDS011;12307;50.828;6.080;2023-01-28T03:51:58;1.50;;;1.40;;
24143;SDS011;12307;50.828;6.080;2023-01-28T03:54:23;1.80;;;1.70;;
24143;SDS011;12307;50.828;6.080;2023-01-28T03:56:49;1.98;;;1.40;;
24143;SDS011;12307;50.828;6.080;2023-01-28T03:59:15;1.70;;;1.60;;
24143;SDS011;12307;50.828;6.080;2023-01-28T04:01:40;1.30;;;1.20;;
24143;SDS011;12307;50.828;6.080;2023-01-28T04:04:06;1.52;;;1.42;;
24143;SDS011;12307;50.828;6.080;2023-01-28T04:06:33;1.40;;;1.30;;
24143;SDS011;12307;50.828;6.080;2023-01-28T04:08:59;1.52;;;1.42;;
24143;SDS011;12307;50.828;6.080;2023-01-28T04:11:24;1.80;;;1.63;;
24143;SDS011;12307;50.828;6.080;2023-01-28T04:13:51;1.80;;;1.50;;
24143;SDS011;12307;50.828;6.080;2023-01-28T04:16:17;2.28;;;1.52;;
24143;SDS011;12307;50.828;6.080;2023-01-28T04:18:44;1.67;;;1.58;;
24143;SDS011;12307;50.828;6.080;2023-01-28T04:21:11;1.40;;;1.30;;
24143;SDS011;12307;50.828;6.080;2023-01-28T04:23:38;1.63;;;1.52;;
24143;SDS011;12307;50.828;6.080;2023-01-28T04:26:03;2.45;;;1.70;;
24143;SDS011;12307;50.828;6.080;2023-01-28T04:28:29;1.70;;;1.52;;
24143;SDS011;12307;50.828;6.080;2023-01-28T04:30:55;1.55;;;1.45;;
24143;SDS011;12307;50.828;6.080;2023-01-28T04:33:21;2.00;;;1.80;;
24143;SDS011;12307;50.828;6.080;2023-01-28T04:35:47;1.63;;;1.52;;
24143;SDS011;12307;50.828;6.080;2023-01-28T04:38:12;1.80;;;1.70;;
24143;SDS011;12307;50.828;6.080;2023-01-28T04:40:39;1.83;;;1.63;;
24143;SDS011;12307;50.828;6.080;2023-01-28T04:43:05;1.75;;;1.65;;
24143;SDS011;12307;50.828;6.080;2023-01-28T04:45:31;2.10;;;1.90;;
24143;SDS011;12307;50.828;6.080;2023-01-28T04:47:56;1.80;;;1.70;;
24143;SDS011;12307;50.828;6.080;2023-01-28T04:50:22;1.92;;;1.63;;
24143;SDS011;12307;50.828;6.080;2023-01-28T04:52:48;1.90;;;1.70;;
24143;SDS011;12307;50.828;6.080;2023-01-28T04:55:13;2.10;;;1.90;;
24143;SDS011;12307;50.828;6.080;2023-01-28T04:57:40;2.20;;;2.00;;
24143;SDS011;12307;50.828;6.080;2023-01-28T05:00:07;2.05;;;1.85;;
24143;SDS011;12307;50.828;6.080;2023-01-28T05:02:34;1.85;;;1.70;;
24143;SDS011;12307;50.828;6.080;2023-01-28T05:04:59;1.67;;;1.58;;
24143;SDS011;12307;50.828;6.080;2023-01-28T05:07:28;1.70;;;1.60;;
24143;SDS011;12307;50.828;6.080;2023-01-28T05:09:54;1.73;;;1.63;;
24143;SDS011;12307;50.828;6.080;2023-01-28T05:12:20;1.85;;;1.65;;
24143;SDS011;12307;50.828;6.080;2023-01-28T05:14:47;1.60;;;1.35;;
24143;SDS011;12307;50.828;6.080;2023-01-28T05:17:12;2.00;;;1.80;;
24143;SDS011;12307;50.828;6.080;2023-01-28T05:19:38;1.77;;;1.67;;
24143;SDS011;12307;50.828;6.080;2023-01-28T05:22:04;2.00;;;1.80;;
24143;SDS011;12307;50.828;6.080;2023-01-28T05:24:29;1.50;;;1.40;;
24143;SDS011;12307;50.828;6.080;2023-01-28T05:26:55;1.70;;;1.60;;
24143;SDS011;12307;50.828;6.080;2023-01-28T05:29:20;2.03;;;1.83;;
24143;SDS011;12307;50.828;6.080;2023-01-28T05:31:47;1.70;;;1.60;;
24143;SDS011;12307;50.828;6.080;2023-01-28T05:34:13;1.98;;;1.77;;
24143;SDS011;12307;50.828;6.080;2023-01-28T05:36:39;2.15;;;1.80;;
24143;SDS011;12307;50.828;6.080;2023-01-28T05:39:05;1.70;;;1.60;;
24143;SDS011;12307;50.828;6.080;2023-01-28T05:41:31;1.77;;;1.60;;
24143;SDS011;12307;50.828;6.080;2023-01-28T05:43:57;2.10;;;1.90;;
24143;SDS011;12307;50.828;6.080;2023-01-28T05:46:23;2.08;;;1.88;;
24143;SDS011;12307;50.828;6.080;2023-01-28T05:48:52;2.13;;;1.52;;
24143;SDS011;12307;50.828;6.080;2023-01-28T05:51:18;2.67;;;1.80;;
24143;SDS011;12307;50.828;6.080;2023-01-28T05:53:44;1.80;;;1.70;;
24143;SDS011;12307;50.828;6.080;2023-01-28T05:56:09;1.88;;;1.70;;
24143;SDS011;12307;50.828;6.080;2023-01-28T05:58:35;1.90;;;1.70;;
24143;SDS011;12307;50.828;6.080;2023-01-28T06:01:01;1.70;;;1.60;;
24143;SDS011;12307;50.828;6.080;2023-01-28T06:03:26;1.98;;;1.88;;
24143;SDS011;12307;50.828;6.080;2023-01-28T06:05:53;1.67;;;1.58;;
24143;SDS011;12307;50.828;6.080;2023-01-28T06:08:19;1.50;;;1.40;;
24143;SDS011;12307;50.828;6.080;2023-01-28T06:10:45;1.73;;;1.60;;
24143;SDS011;12307;50.828;6.080;2023-01-28T06:13:11;1.90;;;1.70;;
24143;SDS011;12307;50.828;6.080;2023-01-28T06:15:36;1.90;;;1.73;;
24143;SDS011;12307;50.828;6.080;2023-01-28T06:18:02;1.98;;;1.83;;
24143;SDS011;12307;50.828;6.080;2023-01-28T06:20:28;1.75;;;1.65;;
24143;SDS011;12307;50.828;6.080;2023-01-28T06:22:55;2.05;;;1.85;;
24143;SDS011;12307;50.828;6.080;2023-01-28T06:25:21;2.00;;;1.85;;
24143;SDS011;12307;50.828;6.080;2023-01-28T06:27:46;1.77;;;1.67;;
24143;SDS011;12307;50.828;6.080;2023-01-28T06:30:12;1.63;;;1.48;;
24143;SDS011;12307;50.828;6.080;2023-01-28T06:32:38;1.83;;;1.63;;
24143;SDS011;12307;50.828;6.080;2023-01-28T06:35:04;2.30;;;1.67;;
24143;SDS011;12307;50.828;6.080;2023-01-28T06:37:30;2.05;;;1.90;;
24143;SDS011;12307;50.828;6.080;2023-01-28T06:39:57;1.90;;;1.80;;
24143;SDS011;12307;50.828;6.080;2023-01-28T06:42:22;1.75;;;1.63;;
24143;SDS011;12307;50.828;6.080;2023-01-28T06:44:48;1.92;;;1.77;;
24143;SDS011;12307;50.828;6.080;2023-01-28T06:47:14;2.03;;;1.60;;
24143;SDS011;12307;50.828;6.080;2023-01-28T06:49:39;2.05;;;1.90;;
24143;SDS011;12307;50.828;6.080;2023-01-28T06:52:05;2.38;;;1.88;;
24143;SDS011;12307;50.828;6.080;2023-01-28T06:54:31;1.90;;;1.80;;
24143;SDS011;12307;50.828;6.080;2023-01-28T06:56:58;2.13;;;1.92;;
24143;SDS011;12307;50.828;6.080;2023-01-28T06:59:23;1.90;;;1.80;;
24143;SDS011;12307;50.828;6.080;2023-01-28T07:01:49;1.77;;;1.67;;
24143;SDS011;12307;50.828;6.080;2023-01-28T07:04:15;1.75;;;1.65;;
24143;SDS011;12307;50.828;6.080;2023-01-28T07:06:41;1.80;;;1.70;;
24143;SDS011;12307;50.828;6.080;2023-01-28T07:09:06;1.80;;;1.70;;
24143;SDS011;12307;50.828;6.080;2023-01-28T07:11:32;1.80;;;1.70;;
24143;SDS011;12307;50.828;6.080;2023-01-28T07:13:59;2.45;;;2.00;;
24143;SDS011;12307;50.828;6.080;2023-01-28T07:16:25;2.03;;;1.80;;
24143;SDS011;12307;50.828;6.080;2023-01-28T07:18:50;1.88;;;1.60;;
24143;SDS011;12307;50.828;6.080;2023-01-28T07:21:16;2.15;;;1.95;;
24143;SDS011;12307;50.828;6.080;2023-01-28T07:23:42;2.28;;;2.08;;
24143;SDS011;12307;50.828;6.080;2023-01-28T07:26:08;2.20;;;2.00;;
24143;SDS011;12307;50.828;6.080;2023-01-28T07:28:34;2.10;;;1.90;;
24143;SDS011;12307;50.828;6.080;2023-01-28T07:31:01;2.05;;;1.85;;
24143;SDS011;12307;50.828;6.080;2023-01-28T07:33:26;1.83;;;1.73;;
24143;SDS011;12307;50.828;6.080;2023-01-28T07:35:52;1.90;;;1.80;;
24143;SDS011;12307;50.828;6.080;2023-01-28T07:38:18;2.75;;;2.30;;
24143;SDS011;12307;50.828;6.080;2023-01-28T07:40:43;2.30;;;2.10;;
24143;SDS011;12307;50.828;6.080;2023-01-28T07:43:10;2.22;;;2.05;;
24143;SDS011;12307;50.828;6.080;2023-01-28T07:45:35;2.30;;;2.10;;
24143;SDS011;12307;50.828;6.080;2023-01-28T07:48:04;2.40;;;2.17;;
24143;SDS011;12307;50.828;6.080;2023-01-28T07:50:32;2.38;;;2.17;;
24143;SDS011;12307;50.828;6.080;2023-01-28T07:53:01;2.38;;;2.17;;
24143;SDS011;12307;50.828;6.080;2023-01-28T07:55:27;2.30;;;2.10;;
24143;SDS011;12307;50.828;6.080;2023-01-28T07:57:53;2.45;;;2.20;;
24143;SDS011;12307;50.828;6.080;2023-01-28T08:00:20;3.10;;;2.20;;
24143;SDS011;12307;50.828;6.080;2023-01-28T08:02:47;2.38;;;2.17;;
24143;SDS011;12307;50.828;6.080;2023-01-28T08:05:15;1.92;;;1.80;;
24143;SDS011;12307;50.828;6.080;2023-01-28T08:07:43;2.33;;;2.13;;
24143;SDS011;12307;50.828;6.080;2023-01-28T08:10:09;2.35;;;2.15;;
24143;SDS011;12307;50.828;6.080;2023-01-28T08:12:35;2.10;;;2.00;;
24143;SDS011;12307;50.828;6.080;2023-01-28T08:15:01;2.33;;;2.13;;
24143;SDS011;12307;50.828;6.080;2023-01-28T08:17:29;2.40;;;2.20;;
24143;SDS011;12307;50.828;6.080;2023-01-28T08:19:55;2.15;;;1.95;;
24143;SDS011;12307;50.828;6.080;2023-01-28T08:22:24;2.00;;;1.90;;
24143;SDS011;12307;50.828;6.080;2023-01-28T08:24:50;2.28;;;2.08;;
24143;SDS011;12307;50.828;6.080;2023-01-28T08:27:16;2.45;;;2.25;;
24143;SDS011;12307;50.828;6.080;2023-01-28T08:29:41;2.30;;;2.10;;
24143;SDS011;12307;50.828;6.080;2023-01-28T08:32:08;2.10;;;1.90;;
24143;SDS011;12307;50.828;6.080;2023-01-28T08:34:34;2.22;;;2.03;;
24143;SDS011;12307;50.828;6.080;2023-01-28T08:36:59;2.35;;;2.10;;
24143;SDS011;12307;50.828;6.080;2023-01-28T08:39:26;2.35;;;2.15;;
24143;SDS011;12307;50.828;6.080;2023-01-28T08:41:52;2.47;;;2.10;;
24143;SDS011;12307;50.828;6.080;2023-01-28T08:44:18;2.10;;;1.90;;
24143;SDS011;12307;50.828;6.080;2023-01-28T08:46:43;2.22;;;2.03;;
24143;SDS011;12307;50.828;6.080;2023-01-28T08:49:09;2.30;;;2.08;;
24143;SDS011;12307;50.828;6.080;2023-01-28T08:51:35;2.67;;;2.20;;
24143;SDS011;12307;50.828;6.080;2023-01-28T08:54:01;2.30;;;2.10;;
24143;SDS011;12307;50.828;6.080;2023-01-28T08:56:28;2.03;;;1.90;;
24143;SDS011;12307;50.828;6.080;2023-01-28T08:58:54;2.15;;;1.95;;
24143;SDS011;12307;50.828;6.080;2023-01-28T09:01:20;1.90;;;1.80;;
24143;SDS011;12307;50.828;6.080;2023-01-28T09:03:45;2.10;;;1.90;;
24143;SDS011;12307;50.828;6.080;2023-01-28T09:06:11;2.20;;;1.95;;
24143;SDS011;12307;50.828;6.080;2023-01-28T09:08:37;2.35;;;2.10;;
24143;SDS011;12307;50.828;6.080;2023-01-28T09:11:03;2.20;;;2.00;;
24143;SDS011;12307;50.828;6.080;2023-01-28T09:13:30;2.13;;;1.92;;
24143;SDS011;12307;50.828;6.080;2023-01-28T09:15:56;2.33;;;2.13;;
24143;SDS011;12307;50.828;6.080;2023-01-28T09:18:21;2.30;;;2.10;;
24143;SDS011;12307;50.828;6.080;2023-01-28T09:20:47;2.38;;;2.17;;
24143;SDS011;12307;50.828;6.080;2023-01-28T09:23:13;2.30;;;2.10;;
24143;SDS011;12307;50.828;6.080;2023-01-28T09:25:38;2.55;;;2.20;;
24143;SDS011;12307;50.828;6.080;2023-01-28T09:28:05;2.15;;;1.98;;
24143;SDS011;12307;50.828;6.080;2023-01-28T09:30:32;1.75;;;1.65;;
24143;SDS011;12307;50.828;6.080;2023-01-28T09:32:59;2.40;;;2.20;;
24143;SDS011;12307;50.828;6.080;2023-01-28T09:35:24;2.28;;;2.05;;
24143;SDS011;12307;50.828;6.080;2023-01-28T09:37:50;2.33;;;2.13;;
24143;SDS011;12307;50.828;6.080;2023-01-28T09:40:17;2.30;;;2.10;;
24143;SDS011;12307;50.828;6.080;2023-01-28T09:42:58;2.35;;;2.15;;
24143;SDS011;12307;50.828;6.080;2023-01-28T09:45:51;2.08;;;1.98;;
24143;SDS011;12307;50.828;6.080;2023-01-28T09:48:20;2.28;;;2.00;;
24143;SDS011;12307;50.828;6.080;2023-01-28T09:50:49;3.38;;;2.10;;
24143;SDS011;12307;50.828;6.080;2023-01-28T09:53:18;2.38;;;2.17;;
24143;SDS011;12307;50.828;6.080;2023-01-28T09:55:46;2.35;;;2.15;;
24143;SDS011;12307;50.828;6.080;2023-01-28T09:58:15;2.25;;;2.05;;
24143;SDS011;12307;50.828;6.080;2023-01-28T10:00:44;2.15;;;2.00;;
24143;SDS011;12307;50.828;6.080;2023-01-28T10:03:23;2.35;;;2.15;;
24143;SDS011;12307;50.828;6.080;2023-01-28T10:06:03;2.40;;;1.80;;
24143;SDS011;12307;50.828;6.080;2023-01-28T10:08:48;2.53;;;2.33;;
24143;SDS011;12307;50.828;6.080;2023-01-28T10:11:39;2.30;;;2.05;;
24143;SDS011;12307;50.828;6.080;2023-01-28T10:14:16;2.60;;;2.40;;
24143;SDS011;12307;50.828;6.080;2023-01-28T10:16:49;2.40;;;2.20;;
24143;SDS011;12307;50.828;6.080;2023-01-28T10:19:20;2.72;;;2.53;;
24143;SDS011;12307;50.828;6.080;2023-01-28T10:21:52;2.00;;;1.90;;
24143;SDS011;12307;50.828;6.080;2023-01-28T10:24:23;2.15;;;2.05;;
24143;SDS011;12307;50.828;6.080;2023-01-28T10:26:53;2.10;;;1.90;;
24143;SDS011;12307;50.828;6.080;2023-01-28T10:29:20;2.30;;;2.10;;
24143;SDS011;12307;50.828;6.080;2023-01-28T10:31:52;2.20;;;2.00;;
24143;SDS011;12307;50.828;6.080;2023-01-28T10:34:20;2.38;;;2.17;;
24143;SDS011;12307;50.828;6.080;2023-01-28T10:36:47;2.33;;;2.13;;
24143;SDS011;12307;50.828;6.080;2023-01-28T10:39:14;2.05;;;1.85;;
24143;SDS011;12307;50.828;6.080;2023-01-28T10:41:40;2.78;;;2.00;;
24143;SDS011;12307;50.828;6.080;2023-01-28T10:44:08;2.10;;;1.90;;
24143;SDS011;12307;50.828;6.080;2023-01-28T10:46:40;2.20;;;2.00;;
24143;SDS011;12307;50.828;6.080;2023-01-28T10:49:11;2.50;;;2.30;;
24143;SDS011;12307;50.828;6.080;2023-01-28T10:51:41;2.28;;;2.08;;
24143;SDS011;12307;50.828;6.080;2023-01-28T10:54:16;2.08;;;1.98;;
24143;SDS011;12307;50.828;6.080;2023-01-28T10:56:44;2.28;;;2.08;;
24143;SDS011;12307;50.828;6.080;2023-01-28T10:59:17;2.45;;;2.25;;
24143;SDS011;12307;50.828;6.080;2023-01-28T11:01:47;2.30;;;2.10;;
24143;SDS011;12307;50.828;6.080;2023-01-28T11:06:50;2.30;;;2.20;;
24143;SDS011;12307;50.828;6.080;2023-01-28T11:09:20;2.30;;;2.13;;
24143;SDS011;12307;50.828;6.080;2023-01-28T11:11:47;2.22;;;2.03;;
24143;SDS011;12307;50.828;6.080;2023-01-28T11:14:18;2.20;;;2.00;;
24143;SDS011;12307;50.828;6.080;2023-01-28T11:16:45;2.33;;;2.13;;
24143;SDS011;12307;50.828;6.080;2023-01-28T11:19:11;2.78;;;2.20;;
24143;SDS011;12307;50.828;6.080;2023-01-28T11:21:36;2.08;;;1.90;;
24143;SDS011;12307;50.828;6.080;2023-01-28T11:24:04;2.50;;;2.30;;
24143;SDS011;12307;50.828;6.080;2023-01-28T11:26:38;2.50;;;2.30;;
24143;SDS011;12307;50.828;6.080;2023-01-28T11:29:17;2.00;;;1.90;;
24143;SDS011;12307;50.828;6.080;2023-01-28T11:31:47;2.30;;;2.10;;
24143;SDS011;12307;50.828;6.080;2023-01-28T11:34:15;2.50;;;2.30;;
24143;SDS011;12307;50.828;6.080;2023-01-28T11:36:48;2.45;;;2.25;;
24143;SDS011;12307;50.828;6.080;2023-01-28T11:39:17;2.38;;;2.17;;
24143;SDS011;12307;50.828;6.080;2023-01-28T11:41:45;2.50;;;2.30;;
24143;SDS011;12307;50.828;6.080;2023-01-28T11:44:13;2.47;;;2.28;;
24143;SDS011;12307;50.828;6.080;2023-01-28T11:46:46;2.38;;;2.17;;
24143;SDS011;12307;50.828;6.080;2023-01-28T11:49:25;2.50;;;2.30;;
24143;SDS011;12307;50.828;6.080;2023-01-28T11:52:01;2.60;;;2.40;;
24143;SDS011;12307;50.828;6.080;2023-01-28T11:54:38;2.30;;;2.10;;
24143;SDS011;12307;50.828;6.080;2023-01-28T11:57:16;2.15;;;2.00;;
24143;SDS011;12307;50.828;6.080;2023-01-28T11:59:58;2.40;;;2.20;;
24143;SDS011;12307;50.828;6.080;2023-01-28T12:05:41;2.55;;;2.35;;
24143;SDS011;12307;50.828;6.080;2023-01-28T12:08:15;2.13;;;2.03;;
24143;SDS011;12307;50.828;6.080;2023-01-28T12:10:51;2.45;;;2.25;;
24143;SDS011;12307;50.828;6.080;2023-01-28T12:13:47;2.42;;;2.22;;
24143;SDS011;12307;50.828;6.080;2023-01-28T12:16:26;3.10;;;2.67;;
24143;SDS011;12307;50.828;6.080;2023-01-28T12:19:08;2.05;;;1.95;;
24143;SDS011;12307;50.828;6.080;2023-01-28T12:22:00;2.40;;;2.20;;
24143;SDS011;12307;50.828;6.080;2023-01-28T12:24:47;2.03;;;1.92;;
24143;SDS011;12307;50.828;6.080;2023-01-28T12:27:33;2.72;;;2.53;;
24143;SDS011;12307;50.828;6.080;2023-01-28T12:30:11;2.42;;;2.00;;
24143;SDS011;12307;50.828;6.080;2023-01-28T12:32:48;2.40;;;2.20;;
24143;SDS011;12307;50.828;6.080;2023-01-28T12:35:27;2.40;;;2.20;;
24143;SDS011;12307;50.828;6.080;2023-01-28T12:38:15;2.63;;;2.38;;
24143;SDS011;12307;50.828;6.080;2023-01-28T12:40:58;2.58;;;2.38;;
24143;SDS011;12307;50.828;6.080;2023-01-28T12:43:36;2.42;;;2.22;;
24143;SDS011;12307;50.828;6.080;2023-01-28T12:46:13;2.53;;;2.30;;
24143;SDS011;12307;50.828;6.080;2023-01-28T12:48:54;2.67;;;2.47;;
24143;SDS011;12307;50.828;6.080;2023-01-28T12:51:26;2.60;;;2.40;;
24143;SDS011;12307;50.828;6.080;2023-01-28T12:53:56;2.40;;;2.20;;
24143;SDS011;12307;50.828;6.080;2023-01-28T12:56:26;2.25;;;2.10;;
24143;SDS011;12307;50.828;6.080;2023-01-28T12:58:57;2.03;;;1.92;;
24143;SDS011;12307;50.828;6.080;2023-01-28T13:01:27;2.40;;;2.20;;
24143;SDS011;12307;50.828;6.080;2023-01-28T13:03:59;2.40;;;2.20;;
24143;SDS011;12307;50.828;6.080;2023-01-28T13:06:31;2.55;;;2.35;;
24143;SDS011;12307;50.828;6.080;2023-01-28T13:09:08;2.35;;;2.15;;
24143;SDS011;12307;50.828;6.080;2023-01-28T13:11:38;2.40;;;2.20;;
24143;SDS011;12307;50.828;6.080;2023-01-28T13:14:05;2.58;;;2.38;;
24143;SDS011;12307;50.828;6.080;2023-01-28T13:16:36;2.50;;;2.30;;
24143;SDS011;12307;50.828;6.080;2023-01-28T13:19:10;2.20;;;2.10;;
24143;SDS011;12307;50.828;6.080;2023-01-28T13:21:47;2.90;;;2.28;;
24143;SDS011;12307;50.828;6.080;2023-01-28T13:24:21;2.45;;;2.25;;
24143;SDS011;12307;50.828;6.080;2023-01-28T13:26:56;2.42;;;2.22;;
24143;SDS011;12307;50.828;6.080;2023-01-28T13:29:30;5.63;;;2.60;;
24143;SDS011;12307;50.828;6.080;2023-01-28T13:31:58;2.65;;;2.45;;
24143;SDS011;12307;50.828;6.080;2023-01-28T13:34:27;2.22;;;2.13;;
24143;SDS011;12307;50.828;6.080;2023-01-28T13:36:57;2.60;;;2.40;;
24143;SDS011;12307;50.828;6.080;2023-01-28T13:39:25;2.50;;;2.30;;
24143;SDS011;12307;50.828;6.080;2023-01-28T13:41:52;2.40;;;2.20;;
24143;SDS011;12307;50.828;6.080;2023-01-28T13:44:20;2.60;;;2.40;;
24143;SDS011;12307;50.828;6.080;2023-01-28T13:46:54;2.40;;;2.20;;
24143;SDS011;12307;50.828;6.080;2023-01-28T13:49:23;2.17;;;2.03;;
24143;SDS011;12307;50.828;6.080;2023-01-28T13:51:55;2.38;;;2.17;;
24143;SDS011;12307;50.828;6.080;2023-01-28T13:54:24;2.38;;;2.20;;
24143;SDS011;12307;50.828;6.080;2023-01-28T13:56:56;2.20;;;2.00;;
24143;SDS011;12307;50.828;6.080;2023-01-28T13:59:47;2.28;;;2.13;;
24143;SDS011;12307;50.828;6.080;2023-01-28T14:02:35;2.13;;;2.00;;
24143;SDS011;12307;50.828;6.080;2023-01-28T14:08:27;2.53;;;2.33;;
24143;SDS011;12307;50.828;6.080;2023-01-28T14:11:21;2.50;;;2.30;;
24143;SDS011;12307;50.828;6.080;2023-01-28T14:14:10;2.50;;;2.30;;
24143;SDS011;12307;50.828;6.080;2023-01-28T14:17:06;2.70;;;2.45;;
24143;SDS011;12307;50.828;6.080;2023-01-28T14:19:42;2.40;;;2.20;;
24143;SDS011;12307;50.828;6.080;2023-01-28T14:22:13;2.40;;;2.20;;
24143;SDS011;12307;50.828;6.080;2023-01-28T14:24:43;2.60;;;2.40;;
24143;SDS011;12307;50.828;6.080;2023-01-28T14:27:10;2.50;;;2.30;;
24143;SDS011;12307;50.828;6.080;2023-01-28T14:29:43;2.40;;;2.20;;
24143;SDS011;12307;50.828;6.080;2023-01-28T14:32:15;2.63;;;2.42;;
24143;SDS011;12307;50.828;6.080;2023-01-28T14:34:44;2.45;;;2.25;;
24143;SDS011;12307;50.828;6.080;2023-01-28T14:37:12;2.33;;;2.15;;
24143;SDS011;12307;50.828;6.080;2023-01-28T14:39:40;2.50;;;2.30;;
24143;SDS011;12307;50.828;6.080;2023-01-28T14:42:13;2.50;;;2.30;;
24143;SDS011;12307;50.828;6.080;2023-01-28T14:44:44;2.47;;;2.28;;
24143;SDS011;12307;50.828;6.080;2023-01-28T14:47:15;2.30;;;2.20;;
24143;SDS011;12307;50.828;6.080;2023-01-28T14:50:05;2.40;;;2.20;;
24143;SDS011;12307;50.828;6.080;2023-01-28T14:53:04;1.98;;;1.80;;
24143;SDS011;12307;50.828;6.080;2023-01-28T14:55:50;2.60;;;2.40;;
24143;SDS011;12307;50.828;6.080;2023-01-28T14:58:21;2.50;;;2.30;;
24143;SDS011;12307;50.828;6.080;2023-01-28T15:00:51;2.13;;;2.03;;
24143;SDS011;12307;50.828;6.080;2023-01-28T15:03:18;2.13;;;2.00;;
24143;SDS011;12307;50.828;6.080;2023-01-28T15:05:46;2.10;;;1.90;;
24143;SDS011;12307;50.828;6.080;2023-01-28T15:08:18;2.38;;;2.22;;
24143;SDS011;12307;50.828;6.080;2023-01-28T15:10:45;2.53;;;2.33;;
24143;SDS011;12307;50.828;6.080;2023-01-28T15:13:14;2.17;;;2.08;;
24143;SDS011;12307;50.828;6.080;2023-01-28T15:15:47;2.40;;;2.20;;
24143;SDS011;12307;50.828;6.080;2023-01-28T15:18:23;2.60;;;2.40;;